Time;durP1;ratioP1;P1;durP2;ratioP2;P2;SDS_P1;SDS_P2;PMS_P1;PMS_P2;Temp;Humidity;BMP_temperature;BMP_pressure;BME280_temperature;BME280_humidity;BME280_pressure;Samples;Min_cycle;Max_cycle;Signal;HPM_P1;HPM_P2
2022/06/20 00:01:22;;;;;;;;;;;14.00;99.90;;;;;;5028215;28;19975;-73
2022/06/20 00:03:48;;;;;;;;;;;13.90;99.90;;;;;;5012674;28;20293;-73
2022/06/20 00:06:18;;;;;;;;;;;13.90;99.90;;;;;;5027376;28;20581;-73
2022/06/20 00:08:43;;;;;;;;;;;13.90;99.90;;;;;;5028872;28;20369;-73
2022/06/20 00:11:14;;;;;;;;;;;13.90;99.90;;;;;;5029762;28;19918;-73
2022/06/20 00:13:39;;;;;;;;;;;13.90;99.90;;;;;;5033043;28;19924;-73
2022/06/20 00:16:05;;;;;;;;;;;13.80;99.90;;;;;;5032029;28;20007;-73
2022/06/20 00:18:30;;;;;;;;;;;13.70;99.90;;;;;;5047966;28;19918;-73
2022/06/20 00:20:56;;;;;;;;;;;13.70;99.90;;;;;;5032262;28;19940;-74
2022/06/20 00:23:22;;;;;;;;;;;13.70;99.90;;;;;;5048599;28;20011;-73
2022/06/20 00:25:48;;;;;;;;;;;13.70;99.90;;;;;;5032503;28;19924;-74
2022/06/20 00:28:14;;;;;;;;;;;13.70;99.90;;;;;;5031915;28;20373;-74
2022/06/20 00:30:39;;;;;;;;;;;13.70;99.90;;;;;;5049730;28;20011;-75
2022/06/20 00:33:05;;;;;;;;;;;13.60;99.90;;;;;;5030395;28;19917;-75
2022/06/20 00:35:32;;;;;;;;;;;13.70;99.90;;;;;;5032982;28;20378;-74
2022/06/20 00:37:58;;;;;;;;;;;13.70;99.90;;;;;;5049317;28;19940;-75
2022/06/20 00:40:26;;;;;;;;;;;13.70;99.90;;;;;;5031626;28;19928;-74
2022/06/20 00:42:53;;;;;;;;;;;13.70;99.90;;;;;;5048721;28;20370;-72
2022/06/20 00:45:20;;;;;;;;;;;13.70;99.90;;;;;;5032185;28;19968;-73
2022/06/20 00:47:46;;;;;;;;;;;13.70;99.90;;;;;;4980414;28;19937;-74
2022/06/20 00:50:18;;;;;;;;;;;13.70;99.90;;;;;;4985492;28;20016;-72
2022/06/20 00:52:43;;;;;;;;;;;13.70;99.90;;;;;;5031768;28;19917;-73
2022/06/20 00:55:27;;;;;;;;;;;13.80;99.90;;;;;;5048599;28;19968;-73
2022/06/20 00:57:56;;;;;;;;;;;13.80;99.90;;;;;;5032346;28;19917;-73
2022/06/20 01:00:23;;;;;;;;;;;13.80;99.90;;;;;;5030358;28;19922;-73
2022/06/20 01:02:56;;;;;;;;;;;13.90;99.90;;;;;;5031751;28;19972;-73
2022/06/20 01:05:24;;;;;;;;;;;13.80;99.90;;;;;;5032901;28;19925;-73
2022/06/20 01:07:57;;;;;;;;;;;13.80;99.90;;;;;;5031420;28;19917;-73
2022/06/20 01:10:25;;;;;;;;;;;13.80;99.90;;;;;;5015542;28;19924;-74
2022/06/20 01:12:58;;;;;;;;;;;13.80;99.90;;;;;;5048420;28;19971;-73
2022/06/20 01:15:26;;;;;;;;;;;13.80;99.90;;;;;;5012750;28;20285;-73
2022/06/20 01:17:52;;;;;;;;;;;13.80;99.90;;;;;;5015384;28;19972;-73
2022/06/20 01:20:20;;;;;;;;;;;13.80;99.90;;;;;;5014502;28;19921;-73
2022/06/20 01:22:49;;;;;;;;;;;13.80;99.90;;;;;;5030141;28;20378;-73
2022/06/20 01:25:24;;;;;;;;;;;13.80;99.90;;;;;;5029575;28;20366;-73
2022/06/20 01:27:50;;;;;;;;;;;13.80;99.90;;;;;;5014287;28;19972;-73
2022/06/20 01:30:17;;;;;;;;;;;13.70;99.90;;;;;;5011054;28;20456;-73
2022/06/20 01:32:43;;;;;;;;;;;13.70;99.90;;;;;;5045857;28;19917;-73
2022/06/20 01:35:11;;;;;;;;;;;13.70;99.90;;;;;;5030422;28;20007;-73
2022/06/20 01:37:41;;;;;;;;;;;13.60;99.90;;;;;;5044701;28;20373;-73
2022/06/20 01:40:13;;;;;;;;;;;13.60;99.90;;;;;;5051044;28;19925;-73
2022/06/20 01:42:39;;;;;;;;;;;13.60;99.90;;;;;;5029686;28;20666;-73
2022/06/20 01:47:52;;;;;;;;;;;13.60;99.90;;;;;;5014299;28;19917;-73
2022/06/20 01:50:18;;;;;;;;;;;13.50;99.90;;;;;;5030301;28;19917;-73
2022/06/20 01:52:44;;;;;;;;;;;13.50;99.90;;;;;;5046961;28;19928;-73
2022/06/20 01:55:12;;;;;;;;;;;13.40;99.90;;;;;;5046065;28;19924;-73
2022/06/20 01:57:39;;;;;;;;;;;13.40;99.90;;;;;;4998225;28;19932;-73
2022/06/20 02:00:14;;;;;;;;;;;13.40;99.90;;;;;;5046131;28;19928;-73
2022/06/20 02:02:41;;;;;;;;;;;13.50;99.90;;;;;;5029271;28;19968;-73
2022/06/20 02:05:09;;;;;;;;;;;13.50;99.90;;;;;;5011669;28;20404;-72
2022/06/20 02:07:35;;;;;;;;;;;13.50;99.90;;;;;;5047550;28;19917;-73
2022/06/20 02:10:01;;;;;;;;;;;13.50;99.90;;;;;;5046404;28;19975;-73
2022/06/20 02:12:29;;;;;;;;;;;13.40;99.90;;;;;;5046983;28;19928;-72
2022/06/20 02:14:56;;;;;;;;;;;13.50;99.90;;;;;;5025982;28;19965;-73
2022/06/20 02:17:23;;;;;;;;;;;13.50;99.90;;;;;;5029901;28;19918;-72
2022/06/20 02:19:51;;;;;;;;;;;13.50;99.90;;;;;;5045917;28;19921;-73
2022/06/20 02:22:18;;;;;;;;;;;13.40;99.90;;;;;;5047257;28;19921;-73
2022/06/20 02:24:47;;;;;;;;;;;13.30;99.90;;;;;;5028147;28;19917;-73
2022/06/20 02:27:23;;;;;;;;;;;13.20;99.90;;;;;;4997570;28;20221;-73
2022/06/20 02:29:49;;;;;;;;;;;13.30;99.90;;;;;;5046499;28;20000;-73
2022/06/20 02:32:17;;;;;;;;;;;13.20;99.90;;;;;;5028529;28;19997;-72
2022/06/20 02:34:43;;;;;;;;;;;13.20;99.90;;;;;;5024575;28;20294;-73
2022/06/20 02:37:10;;;;;;;;;;;13.20;99.90;;;;;;5002912;28;20385;-73
2022/06/20 02:39:40;;;;;;;;;;;13.00;99.90;;;;;;5027473;28;19975;-72
2022/06/20 02:42:09;;;;;;;;;;;13.00;99.90;;;;;;5046812;28;19925;-73
2022/06/20 02:44:34;;;;;;;;;;;12.90;99.90;;;;;;5031057;28;19921;-73
2022/06/20 02:47:04;;;;;;;;;;;12.80;99.90;;;;;;4994571;28;19918;-73
2022/06/20 02:49:30;;;;;;;;;;;12.80;99.90;;;;;;5021015;28;19924;-73
2022/06/20 02:51:56;;;;;;;;;;;12.80;99.90;;;;;;5027738;28;20004;-73
2022/06/20 02:54:24;;;;;;;;;;;12.80;99.90;;;;;;5020564;28;19996;-72
2022/06/20 02:56:52;;;;;;;;;;;12.80;99.90;;;;;;5013527;28;19924;-72
2022/06/20 02:59:22;;;;;;;;;;;12.70;99.90;;;;;;5012658;28;19917;-73
2022/06/20 03:01:53;;;;;;;;;;;12.70;99.90;;;;;;5008538;28;21244;-73
2022/06/20 03:04:20;;;;;;;;;;;12.70;99.90;;;;;;5011445;28;20377;-73
2022/06/20 03:06:49;;;;;;;;;;;12.70;99.90;;;;;;5020809;28;19917;-73
2022/06/20 03:09:17;;;;;;;;;;;12.50;99.90;;;;;;5029750;28;19917;-73
2022/06/20 03:11:43;;;;;;;;;;;12.60;99.90;;;;;;5045764;28;20309;-73
2022/06/20 03:14:11;;;;;;;;;;;12.50;99.90;;;;;;5044741;28;20280;-73
2022/06/20 03:16:39;;;;;;;;;;;12.50;99.90;;;;;;5045259;28;20112;-73
2022/06/20 03:19:07;;;;;;;;;;;12.60;99.90;;;;;;5028816;28;19917;-73
2022/06/20 03:21:38;;;;;;;;;;;12.60;99.90;;;;;;5013077;28;19928;-73
2022/06/20 03:24:04;;;;;;;;;;;12.50;99.90;;;;;;5045259;28;20003;-73
2022/06/20 03:26:30;;;;;;;;;;;12.40;99.90;;;;;;5029168;28;20345;-73
2022/06/20 03:28:56;;;;;;;;;;;12.40;99.90;;;;;;5041607;28;19956;-73
2022/06/20 03:31:21;;;;;;;;;;;12.40;99.90;;;;;;5015231;28;19917;-73
2022/06/20 03:33:47;;;;;;;;;;;12.40;99.90;;;;;;5035645;28;19924;-73
2022/06/20 03:36:15;;;;;;;;;;;12.50;99.90;;;;;;5009692;28;20353;-73
2022/06/20 03:38:43;;;;;;;;;;;12.50;99.90;;;;;;5028493;28;19961;-73
2022/06/20 03:41:10;;;;;;;;;;;12.50;99.90;;;;;;5012594;28;20004;-73
2022/06/20 03:43:36;;;;;;;;;;;12.40;99.90;;;;;;5028396;28;19924;-73
2022/06/20 03:46:05;;;;;;;;;;;12.40;99.90;;;;;;5010455;28;19924;-73
2022/06/20 03:48:41;;;;;;;;;;;12.40;99.90;;;;;;5036437;28;19940;-73
2022/06/20 03:51:06;;;;;;;;;;;12.40;99.90;;;;;;5028102;28;20443;-73
2022/06/20 03:53:36;;;;;;;;;;;12.30;99.90;;;;;;5045141;28;19917;-73
2022/06/20 03:56:07;;;;;;;;;;;12.30;99.90;;;;;;5026740;28;19924;-73
2022/06/20 03:58:38;;;;;;;;;;;12.20;99.90;;;;;;5027846;28;19917;-73
2022/06/20 04:01:07;;;;;;;;;;;12.20;99.90;;;;;;5028933;28;19922;-72
2022/06/20 04:03:37;;;;;;;;;;;12.30;99.90;;;;;;5025252;28;19924;-73
2022/06/20 04:06:13;;;;;;;;;;;12.30;99.90;;;;;;5028248;28;19962;-72
2022/06/20 04:11:33;;;;;;;;;;;12.10;99.90;;;;;;5011348;28;19918;-73
2022/06/20 04:14:10;;;;;;;;;;;12.10;99.90;;;;;;5028428;28;19918;-73
2022/06/20 04:16:41;;;;;;;;;;;12.10;99.90;;;;;;5028655;28;20004;-73
2022/06/20 04:19:26;;;;;;;;;;;12.20;99.90;;;;;;5043427;28;20027;-73
2022/06/20 04:22:03;;;;;;;;;;;12.10;99.90;;;;;;5028787;28;19971;-73
2022/06/20 04:24:47;;;;;;;;;;;12.20;99.90;;;;;;5044094;28;20016;-73
2022/06/20 04:27:22;;;;;;;;;;;12.20;99.90;;;;;;5043007;28;19924;-73
2022/06/20 04:29:51;;;;;;;;;;;12.20;99.90;;;;;;5026172;28;19917;-73
2022/06/20 04:32:20;;;;;;;;;;;12.20;99.90;;;;;;5034116;28;20381;-73
2022/06/20 04:34:56;;;;;;;;;;;12.10;99.90;;;;;;5030285;28;20264;-73
2022/06/20 04:37:22;;;;;;;;;;;12.00;99.90;;;;;;5028180;28;19917;-72
2022/06/20 04:39:59;;;;;;;;;;;12.00;99.90;;;;;;5042118;28;20328;-73
2022/06/20 04:42:25;;;;;;;;;;;12.00;99.90;;;;;;5010107;28;19924;-72
2022/06/20 04:45:02;;;;;;;;;;;12.00;99.90;;;;;;5028077;28;20343;-72
2022/06/20 04:47:57;;;;;;;;;;;12.10;99.90;;;;;;5045652;28;20304;-73
2022/06/20 04:50:24;;;;;;;;;;;12.10;99.90;;;;;;5040780;28;20452;-72
2022/06/20 04:52:51;;;;;;;;;;;12.30;99.90;;;;;;5044087;28;19925;-72
2022/06/20 04:55:19;;;;;;;;;;;12.30;99.90;;;;;;5026603;28;19932;-72
2022/06/20 04:57:46;;;;;;;;;;;12.40;99.90;;;;;;5046677;28;19944;-72
2022/06/20 05:00:19;;;;;;;;;;;12.40;99.90;;;;;;5028129;28;19929;-73
2022/06/20 05:02:45;;;;;;;;;;;12.50;99.90;;;;;;5043871;28;19918;-73
2022/06/20 05:05:18;;;;;;;;;;;12.60;99.90;;;;;;5014408;28;19917;-73
2022/06/20 05:07:45;;;;;;;;;;;12.70;99.90;;;;;;5047345;28;19917;-73
2022/06/20 05:10:16;;;;;;;;;;;12.70;99.90;;;;;;5033105;28;19917;-72
2022/06/20 05:12:45;;;;;;;;;;;12.80;99.90;;;;;;4997412;28;19917;-73
2022/06/20 05:15:23;;;;;;;;;;;12.90;99.90;;;;;;5030708;28;19924;-73
2022/06/20 05:17:49;;;;;;;;;;;12.90;99.90;;;;;;5014650;28;20393;-73
2022/06/20 05:20:19;;;;;;;;;;;13.00;99.90;;;;;;5031795;28;19949;-73
2022/06/20 05:22:50;;;;;;;;;;;13.10;99.90;;;;;;5011695;28;19972;-73
2022/06/20 05:25:17;;;;;;;;;;;13.10;99.90;;;;;;5015294;28;19928;-73
2022/06/20 05:27:50;;;;;;;;;;;13.20;99.90;;;;;;5030952;28;19962;-73
2022/06/20 05:30:18;;;;;;;;;;;13.20;99.90;;;;;;5029684;28;19975;-73
2022/06/20 05:32:49;;;;;;;;;;;13.30;99.90;;;;;;5029897;28;19918;-73
2022/06/20 05:35:20;;;;;;;;;;;13.40;99.90;;;;;;5027935;28;19917;-73
2022/06/20 05:37:48;;;;;;;;;;;13.50;99.90;;;;;;5015082;28;19917;-73
2022/06/20 05:40:26;;;;;;;;;;;13.60;99.90;;;;;;5028118;28;19937;-73
2022/06/20 05:42:51;;;;;;;;;;;13.80;99.90;;;;;;5030510;28;20388;-73
2022/06/20 05:45:18;;;;;;;;;;;13.90;99.90;;;;;;5013623;28;19917;-73
2022/06/20 05:47:47;;;;;;;;;;;14.00;99.90;;;;;;5047236;28;20019;-73
2022/06/20 05:50:12;;;;;;;;;;;14.10;99.90;;;;;;5013621;28;20374;-73
2022/06/20 05:52:40;;;;;;;;;;;14.30;99.90;;;;;;5046678;28;19925;-73
2022/06/20 05:55:13;;;;;;;;;;;14.40;99.90;;;;;;5010977;28;19918;-73
2022/06/20 05:57:40;;;;;;;;;;;14.50;99.90;;;;;;5031313;28;20396;-73
2022/06/20 06:00:09;;;;;;;;;;;14.60;99.90;;;;;;5019685;28;20063;-73
2022/06/20 06:02:38;;;;;;;;;;;14.70;99.90;;;;;;5047027;28;19964;-73
2022/06/20 06:05:22;;;;;;;;;;;14.80;99.90;;;;;;5036139;28;19957;-73
2022/06/20 06:07:55;;;;;;;;;;;14.90;99.90;;;;;;5028723;28;19917;-73
2022/06/20 06:10:32;;;;;;;;;;;15.10;99.90;;;;;;5029952;28;20278;-73
2022/06/20 06:13:05;;;;;;;;;;;15.20;99.90;;;;;;5012327;28;20285;-72
2022/06/20 06:15:31;;;;;;;;;;;15.30;99.90;;;;;;5027844;28;19918;-73
2022/06/20 06:17:58;;;;;;;;;;;15.30;99.90;;;;;;5046717;28;20000;-73
2022/06/20 06:20:26;;;;;;;;;;;15.30;99.90;;;;;;5027726;28;20309;-73
2022/06/20 06:22:56;;;;;;;;;;;15.40;99.90;;;;;;5010917;28;19918;-73
2022/06/20 06:25:24;;;;;;;;;;;15.60;99.90;;;;;;5028696;28;19917;-73
2022/06/20 06:27:50;;;;;;;;;;;15.60;99.90;;;;;;5001711;28;19926;-72
2022/06/20 06:30:20;;;;;;;;;;;15.60;99.90;;;;;;5042272;28;20020;-73
2022/06/20 06:33:01;;;;;;;;;;;15.70;99.90;;;;;;5001265;28;20371;-73
2022/06/20 06:35:46;;;;;;;;;;;15.60;99.90;;;;;;5029476;28;19921;-73
2022/06/20 06:38:14;;;;;;;;;;;15.60;99.90;;;;;;5030291;28;19992;-72
2022/06/20 06:40:50;;;;;;;;;;;15.40;99.90;;;;;;5005050;28;20329;-73
2022/06/20 06:43:18;;;;;;;;;;;15.60;99.90;;;;;;5032047;28;20336;-73
2022/06/20 06:45:45;;;;;;;;;;;15.60;99.90;;;;;;5025592;28;20273;-73
2022/06/20 06:48:19;;;;;;;;;;;15.70;99.90;;;;;;5007623;28;20397;-73
2022/06/20 06:50:53;;;;;;;;;;;15.80;99.90;;;;;;5028113;28;19924;-73
2022/06/20 06:53:19;;;;;;;;;;;15.80;99.90;;;;;;5029310;28;20381;-73
2022/06/20 06:55:47;;;;;;;;;;;15.70;99.90;;;;;;5029637;28;19932;-73
2022/06/20 06:58:24;;;;;;;;;;;15.70;99.90;;;;;;5023709;28;19933;-73
2022/06/20 07:00:58;;;;;;;;;;;15.80;99.90;;;;;;5044252;28;19965;-74
2022/06/20 07:03:29;;;;;;;;;;;15.70;99.90;;;;;;5028045;28;20275;-73
2022/06/20 07:05:59;;;;;;;;;;;15.90;99.90;;;;;;5013325;28;19918;-73
2022/06/20 07:08:35;;;;;;;;;;;16.00;99.90;;;;;;5030495;28;20350;-74
2022/06/20 07:11:04;;;;;;;;;;;16.00;99.90;;;;;;5031591;28;19917;-74
2022/06/20 07:13:32;;;;;;;;;;;15.90;99.90;;;;;;5046167;28;20424;-72
2022/06/20 07:15:59;;;;;;;;;;;15.80;99.90;;;;;;5029146;28;19917;-73
2022/06/20 07:18:30;;;;;;;;;;;15.70;99.90;;;;;;5011823;28;19917;-73
2022/06/20 07:20:56;;;;;;;;;;;15.70;99.90;;;;;;5044243;28;19924;-73
2022/06/20 07:23:22;;;;;;;;;;;15.80;99.90;;;;;;5011802;28;19917;-73
2022/06/20 07:25:49;;;;;;;;;;;16.00;99.90;;;;;;4998379;28;19925;-73
2022/06/20 07:28:34;;;;;;;;;;;16.10;99.90;;;;;;5029172;28;19917;-73
2022/06/20 07:31:12;;;;;;;;;;;16.20;99.90;;;;;;5009516;28;19917;-73
2022/06/20 07:33:43;;;;;;;;;;;16.30;99.90;;;;;;5011449;28;20480;-73
2022/06/20 07:36:10;;;;;;;;;;;16.30;99.90;;;;;;5044192;28;19917;-73
2022/06/20 07:38:45;;;;;;;;;;;16.20;99.90;;;;;;5028082;28;19921;-73
2022/06/20 07:41:22;;;;;;;;;;;16.10;99.90;;;;;;5043852;28;19921;-73
2022/06/20 07:43:52;;;;;;;;;;;16.10;99.90;;;;;;5012107;28;19924;-73
2022/06/20 07:46:21;;;;;;;;;;;16.10;99.90;;;;;;5029251;28;20004;-73
2022/06/20 07:48:47;;;;;;;;;;;16.10;99.90;;;;;;5029560;28;19921;-73
2022/06/20 07:51:15;;;;;;;;;;;16.10;99.90;;;;;;5024346;28;19917;-73
2022/06/20 07:53:44;;;;;;;;;;;16.10;99.90;;;;;;5009999;28;19917;-73
2022/06/20 07:56:18;;;;;;;;;;;16.10;99.90;;;;;;5037934;28;19917;-75
2022/06/20 07:58:52;;;;;;;;;;;16.20;99.90;;;;;;5011600;28;20382;-72
2022/06/20 08:01:28;;;;;;;;;;;16.30;99.90;;;;;;5043359;28;19926;-72
2022/06/20 08:03:57;;;;;;;;;;;16.30;99.90;;;;;;5036123;28;19968;-72
2022/06/20 08:06:34;;;;;;;;;;;16.20;99.90;;;;;;5029074;28;19917;-73
2022/06/20 08:09:03;;;;;;;;;;;16.30;99.90;;;;;;5000777;28;19925;-72
2022/06/20 08:11:43;;;;;;;;;;;16.50;99.90;;;;;;5021788;28;19918;-73
2022/06/20 08:14:15;;;;;;;;;;;16.80;99.90;;;;;;5010231;28;19924;-73
2022/06/20 08:16:41;;;;;;;;;;;17.00;99.90;;;;;;5028189;28;19917;-72
2022/06/20 08:19:06;;;;;;;;;;;17.10;99.90;;;;;;5026476;28;20020;-73
2022/06/20 08:21:41;;;;;;;;;;;17.20;99.90;;;;;;5037531;28;20016;-72
2022/06/20 08:24:14;;;;;;;;;;;17.10;99.90;;;;;;4996036;28;19921;-73
2022/06/20 08:26:45;;;;;;;;;;;17.10;99.90;;;;;;4994893;28;19924;-73
2022/06/20 08:29:12;;;;;;;;;;;16.90;99.90;;;;;;5045037;28;19940;-72
2022/06/20 08:31:45;;;;;;;;;;;16.80;99.90;;;;;;5020402;28;19917;-73
2022/06/20 08:34:14;;;;;;;;;;;16.60;99.90;;;;;;5032938;28;20278;-73
2022/06/20 08:36:44;;;;;;;;;;;16.70;99.90;;;;;;5024773;28;20285;-72
2022/06/20 08:39:14;;;;;;;;;;;16.90;99.90;;;;;;5016295;28;19991;-73
2022/06/20 08:41:48;;;;;;;;;;;17.10;99.90;;;;;;5015419;28;19925;-72
2022/06/20 08:44:26;;;;;;;;;;;17.30;99.90;;;;;;5032565;28;19971;-73
2022/06/20 08:47:10;;;;;;;;;;;17.60;99.90;;;;;;5030803;28;19972;-73
2022/06/20 08:49:54;;;;;;;;;;;17.70;99.90;;;;;;5024367;28;19921;-73
2022/06/20 08:52:39;;;;;;;;;;;17.80;99.90;;;;;;5014988;28;19917;-74
2022/06/20 08:55:07;;;;;;;;;;;18.00;99.90;;;;;;5043769;28;19963;-73
2022/06/20 08:57:54;;;;;;;;;;;18.10;99.90;;;;;;5033723;28;19918;-73
2022/06/20 09:00:19;;;;;;;;;;;18.40;99.90;;;;;;5042566;28;19926;-73
2022/06/20 09:02:57;;;;;;;;;;;18.30;99.90;;;;;;5045938;28;19925;-76
2022/06/20 09:05:23;;;;;;;;;;;18.00;99.90;;;;;;5030486;28;19921;-73
2022/06/20 09:07:48;;;;;;;;;;;17.80;99.90;;;;;;5047484;28;20401;-73
2022/06/20 09:10:17;;;;;;;;;;;17.90;99.90;;;;;;5047767;28;19944;-73
2022/06/20 09:13:07;;;;;;;;;;;17.70;99.90;;;;;;5013145;28;20452;-73
2022/06/20 09:15:38;;;;;;;;;;;17.60;99.90;;;;;;5030471;28;19933;-73
2022/06/20 09:18:12;;;;;;;;;;;17.90;99.90;;;;;;5045740;28;19932;-73
2022/06/20 09:20:38;;;;;;;;;;;17.90;99.90;;;;;;5030600;28;20053;-73
2022/06/20 09:23:12;;;;;;;;;;;17.80;99.90;;;;;;5046309;28;20000;-73
2022/06/20 09:25:44;;;;;;;;;;;17.80;99.90;;;;;;5010554;28;19917;-72
2022/06/20 09:28:09;;;;;;;;;;;17.80;99.90;;;;;;5047457;28;19921;-72
2022/06/20 09:30:47;;;;;;;;;;;17.70;99.90;;;;;;5042741;28;20380;-73
2022/06/20 09:33:12;;;;;;;;;;;17.70;99.90;;;;;;5046595;28;20307;-72
2022/06/20 09:36:03;;;;;;;;;;;17.70;99.90;;;;;;5044246;28;19932;-73
2022/06/20 09:38:36;;;;;;;;;;;17.70;99.90;;;;;;5002069;28;20275;-73
2022/06/20 09:41:13;;;;;;;;;;;17.90;99.90;;;;;;5038886;28;20014;-72
2022/06/20 09:43:44;;;;;;;;;;;17.90;99.90;;;;;;5028168;28;20386;-72
2022/06/20 09:46:17;;;;;;;;;;;18.00;99.90;;;;;;5005387;28;19924;-72
2022/06/20 09:49:03;;;;;;;;;;;18.30;99.90;;;;;;5008798;28;20064;-72
2022/06/20 09:51:38;;;;;;;;;;;18.60;99.90;;;;;;5029051;28;19924;-73
2022/06/20 09:54:25;;;;;;;;;;;18.60;99.90;;;;;;5027865;28;19925;-73
2022/06/20 09:56:57;;;;;;;;;;;18.40;99.90;;;;;;5046822;28;19947;-73
2022/06/20 09:59:23;;;;;;;;;;;18.30;99.90;;;;;;5028864;28;19990;-72
2022/06/20 10:02:04;;;;;;;;;;;18.20;99.90;;;;;;5027620;28;20382;-72
2022/06/20 10:04:33;;;;;;;;;;;18.00;99.90;;;;;;5023964;28;20378;-72
2022/06/20 10:07:14;;;;;;;;;;;18.00;99.90;;;;;;5048988;28;19987;-72
2022/06/20 10:09:49;;;;;;;;;;;17.90;99.90;;;;;;5046091;28;20288;-73
2022/06/20 10:12:15;;;;;;;;;;;18.00;99.90;;;;;;5010891;28;20428;-72
2022/06/20 10:14:43;;;;;;;;;;;17.90;99.90;;;;;;5030188;28;19921;-73
2022/06/20 10:17:12;;;;;;;;;;;18.00;99.90;;;;;;5013870;28;20000;-73
2022/06/20 10:19:47;;;;;;;;;;;18.20;99.90;;;;;;5042530;28;19928;-72
2022/06/20 10:22:23;;;;;;;;;;;18.40;99.90;;;;;;5021693;28;20336;-72
2022/06/20 10:25:04;;;;;;;;;;;18.50;99.90;;;;;;5016155;28;19918;-72
2022/06/20 10:27:32;;;;;;;;;;;18.50;99.90;;;;;;5045814;28;19940;-73
2022/06/20 10:30:04;;;;;;;;;;;18.80;99.90;;;;;;5026743;28;19917;-73
2022/06/20 10:32:39;;;;;;;;;;;18.90;99.90;;;;;;5041164;28;19917;-73
2022/06/20 10:35:17;;;;;;;;;;;19.00;99.90;;;;;;5028806;28;19921;-73
2022/06/20 10:37:42;;;;;;;;;;;19.10;99.90;;;;;;5045761;28;19917;-73
2022/06/20 10:40:26;;;;;;;;;;;19.20;99.90;;;;;;5003800;28;19971;-72
2022/06/20 10:42:52;;;;;;;;;;;19.00;99.90;;;;;;5045851;28;19984;-73
2022/06/20 10:45:31;;;;;;;;;;;18.90;99.90;;;;;;5010427;28;19917;-73
2022/06/20 10:48:09;;;;;;;;;;;18.80;99.90;;;;;;5026262;28;19925;-73
2022/06/20 10:50:41;;;;;;;;;;;18.80;99.90;;;;;;5027115;28;19924;-73
2022/06/20 10:53:16;;;;;;;;;;;19.10;99.90;;;;;;5027371;28;20004;-73
2022/06/20 10:55:48;;;;;;;;;;;19.20;99.90;;;;;;5039090;28;19922;-73
2022/06/20 10:58:18;;;;;;;;;;;19.10;99.90;;;;;;5039121;28;19921;-72
2022/06/20 11:00:46;;;;;;;;;;;18.80;99.90;;;;;;5004195;28;19965;-73
2022/06/20 11:03:12;;;;;;;;;;;18.80;99.90;;;;;;5028996;28;20008;-73
2022/06/20 11:05:40;;;;;;;;;;;18.60;99.90;;;;;;5037816;28;19968;-73
2022/06/20 11:08:12;;;;;;;;;;;18.40;99.90;;;;;;5013697;28;19925;-73
2022/06/20 11:10:45;;;;;;;;;;;18.60;99.90;;;;;;5010561;28;20342;-75
2022/06/20 11:13:11;;;;;;;;;;;18.80;99.90;;;;;;5028915;28;20428;-72
2022/06/20 11:15:50;;;;;;;;;;;18.90;99.90;;;;;;5028463;28;20008;-73
2022/06/20 11:18:39;;;;;;;;;;;18.90;99.90;;;;;;5025417;28;19917;-73
2022/06/20 11:21:24;;;;;;;;;;;19.00;99.90;;;;;;5027913;28;19921;-73
2022/06/20 11:24:09;;;;;;;;;;;19.10;99.90;;;;;;5028854;28;19924;-73
2022/06/20 11:26:42;;;;;;;;;;;19.10;99.90;;;;;;5027687;28;20513;-73
2022/06/20 11:29:21;;;;;;;;;;;19.20;99.90;;;;;;5044816;28;19925;-74
2022/06/20 11:31:49;;;;;;;;;;;19.30;99.90;;;;;;5028854;28;19968;-73
2022/06/20 11:34:31;;;;;;;;;;;19.40;99.90;;;;;;5007871;28;19925;-73
2022/06/20 11:37:02;;;;;;;;;;;19.60;99.90;;;;;;5026606;28;19925;-73
2022/06/20 11:39:40;;;;;;;;;;;19.60;99.90;;;;;;5026951;28;19921;-72
2022/06/20 11:42:24;;;;;;;;;;;19.50;99.90;;;;;;5029857;28;19921;-74
2022/06/20 11:45:05;;;;;;;;;;;19.30;99.00;;;;;;5042210;28;19917;-73
2022/06/20 11:47:38;;;;;;;;;;;19.40;99.90;;;;;;4992527;28;20397;-73
2022/06/20 11:50:22;;;;;;;;;;;19.30;99.90;;;;;;5020146;28;19921;-73
2022/06/20 11:52:57;;;;;;;;;;;19.10;99.90;;;;;;5028870;28;19917;-73
2022/06/20 11:55:25;;;;;;;;;;;19.10;99.90;;;;;;5028158;28;19925;-73
2022/06/20 11:58:00;;;;;;;;;;;19.00;99.90;;;;;;5027177;28;19940;-73
2022/06/20 12:00:44;;;;;;;;;;;18.90;99.90;;;;;;5009333;28;19925;-73
2022/06/20 12:03:13;;;;;;;;;;;19.00;99.90;;;;;;5026864;28;20361;-73
2022/06/20 12:05:49;;;;;;;;;;;19.00;99.90;;;;;;5009126;28;19999;-73
2022/06/20 12:08:24;;;;;;;;;;;19.20;99.90;;;;;;5043985;28;20369;-74
2022/06/20 12:10:53;;;;;;;;;;;19.50;99.90;;;;;;5018464;28;20369;-73
2022/06/20 12:13:37;;;;;;;;;;;19.50;99.70;;;;;;5002647;28;19940;-73
2022/06/20 12:16:14;;;;;;;;;;;19.40;99.90;;;;;;5018415;28;19961;-73
2022/06/20 12:24:33;;;;;;;;;;;19.20;99.40;;;;;;5029980;28;19917;-73
2022/06/20 12:26:58;;;;;;;;;;;19.20;99.90;;;;;;5035422;28;19917;-73
2022/06/20 12:29:25;;;;;;;;;;;19.40;99.90;;;;;;5018684;28;19972;-73
2022/06/20 12:31:56;;;;;;;;;;;19.50;99.90;;;;;;5017266;28;19921;-73
2022/06/20 12:34:27;;;;;;;;;;;19.60;99.90;;;;;;5051263;28;19922;-74
2022/06/20 12:37:11;;;;;;;;;;;19.50;99.90;;;;;;5028694;28;19929;-73
2022/06/20 12:39:48;;;;;;;;;;;19.50;99.90;;;;;;5033878;28;20019;-73
2022/06/20 12:42:19;;;;;;;;;;;19.50;99.90;;;;;;5012135;28;20570;-73
2022/06/20 12:45:00;;;;;;;;;;;19.30;99.00;;;;;;5028701;28;20329;-73
2022/06/20 12:47:25;;;;;;;;;;;19.10;99.90;;;;;;5014308;28;20004;-73
2022/06/20 12:49:51;;;;;;;;;;;18.70;99.80;;;;;;5017377;28;20063;-73
2022/06/20 12:52:19;;;;;;;;;;;18.60;99.90;;;;;;5042433;28;19918;-73
2022/06/20 12:54:51;;;;;;;;;;;18.70;99.90;;;;;;5008269;28;19924;-73
2022/06/20 12:57:29;;;;;;;;;;;18.70;99.90;;;;;;5034291;28;19972;-73
2022/06/20 13:00:03;;;;;;;;;;;18.80;99.30;;;;;;5033063;28;19967;-74
2022/06/20 13:02:32;;;;;;;;;;;18.90;99.90;;;;;;5035375;28;19917;-73
2022/06/20 13:05:03;;;;;;;;;;;19.00;99.90;;;;;;5032162;28;19917;-73
2022/06/20 13:07:38;;;;;;;;;;;19.10;99.90;;;;;;5050875;28;19960;-73
2022/06/20 13:10:20;;;;;;;;;;;19.10;99.90;;;;;;5010489;28;20012;-73
2022/06/20 13:13:12;;;;;;;;;;;19.10;99.90;;;;;;4998529;28;19972;-73
2022/06/20 13:15:38;;;;;;;;;;;19.00;99.90;;;;;;5025455;28;19921;-73
2022/06/20 13:18:09;;;;;;;;;;;19.00;99.90;;;;;;5016703;28;20001;-73
2022/06/20 13:20:41;;;;;;;;;;;18.80;99.90;;;;;;5013285;28;20004;-73
2022/06/20 13:23:23;;;;;;;;;;;18.80;99.90;;;;;;5016469;28;19925;-73
2022/06/20 13:26:11;;;;;;;;;;;18.80;99.90;;;;;;5026265;28;19917;-73
2022/06/20 13:29:03;;;;;;;;;;;18.70;99.90;;;;;;5041384;28;20297;-73
2022/06/20 13:31:35;;;;;;;;;;;18.70;99.90;;;;;;4990345;28;19971;-73
2022/06/20 13:34:10;;;;;;;;;;;18.60;99.90;;;;;;5002095;28;20366;-73
2022/06/20 13:36:41;;;;;;;;;;;18.60;99.90;;;;;;5011832;28;19940;-73
2022/06/20 13:39:25;;;;;;;;;;;18.40;99.90;;;;;;5024939;28;19921;-73
2022/06/20 13:42:03;;;;;;;;;;;18.30;99.90;;;;;;5029157;28;19971;-72
2022/06/20 13:44:48;;;;;;;;;;;18.00;99.90;;;;;;5030681;28;19917;-73
2022/06/20 13:47:20;;;;;;;;;;;17.90;99.90;;;;;;5011678;28;20012;-73
2022/06/20 13:50:02;;;;;;;;;;;18.10;99.90;;;;;;5046330;28;20259;-73
2022/06/20 13:52:30;;;;;;;;;;;18.20;99.90;;;;;;5029466;28;19940;-73
2022/06/20 13:55:01;;;;;;;;;;;18.30;99.90;;;;;;5030620;28;19932;-73
2022/06/20 13:57:42;;;;;;;;;;;18.60;99.90;;;;;;5028723;28;19922;-73
2022/06/20 14:00:16;;;;;;;;;;;18.70;99.90;;;;;;4995520;28;19918;-74
2022/06/20 14:02:43;;;;;;;;;;;18.80;99.90;;;;;;5046552;28;20435;-74
2022/06/20 14:05:11;;;;;;;;;;;18.90;99.90;;;;;;5014527;28;19921;-73
2022/06/20 14:07:37;;;;;;;;;;;18.60;99.90;;;;;;5029593;28;19917;-73
2022/06/20 14:10:04;;;;;;;;;;;18.30;99.90;;;;;;5013502;28;20309;-73
2022/06/20 14:12:32;;;;;;;;;;;18.10;99.90;;;;;;5028430;28;19917;-73
2022/06/20 14:15:02;;;;;;;;;;;18.10;99.90;;;;;;5012271;28;19917;-74
2022/06/20 14:17:30;;;;;;;;;;;18.00;99.90;;;;;;5045898;28;19917;-73
2022/06/20 14:19:55;;;;;;;;;;;17.90;99.90;;;;;;5012037;28;20033;-73
2022/06/20 14:22:21;;;;;;;;;;;17.80;99.90;;;;;;5041972;28;20389;-74
2022/06/20 14:24:48;;;;;;;;;;;17.70;99.90;;;;;;5011670;28;19926;-74
2022/06/20 14:27:14;;;;;;;;;;;17.70;99.90;;;;;;5009601;28;19968;-74
2022/06/20 14:29:40;;;;;;;;;;;17.60;99.90;;;;;;5046366;28;19961;-73
2022/06/20 14:32:08;;;;;;;;;;;17.70;99.90;;;;;;5046326;28;19921;-73
2022/06/20 14:35:20;;;;;;;;;;;17.60;99.90;;;;;;5020061;28;19971;-74
2022/06/20 14:37:31;;;;;;;;;;;17.80;99.90;;;;;;5030087;28;19967;-74
2022/06/20 14:39:58;;;;;;;;;;;17.70;99.90;;;;;;5036843;28;20000;-73
2022/06/20 14:42:39;;;;;;;;;;;18.00;99.90;;;;;;5011376;28;19982;-73
2022/06/20 14:45:11;;;;;;;;;;;17.90;99.90;;;;;;5013236;28;19925;-73
2022/06/20 14:47:58;;;;;;;;;;;17.90;99.90;;;;;;5046444;28;20445;-73
2022/06/20 14:50:28;;;;;;;;;;;17.90;99.90;;;;;;5028808;28;19917;-74
2022/06/20 14:52:53;;;;;;;;;;;18.00;99.90;;;;;;5025517;28;19917;-74